Time,TemperatureF,DewpointF,PressureIn,WindDirection,WindDirectionDegrees,WindSpeedMPH,WindSpeedGustMPH,Humidity,HourlyPrecipIn,Conditions,Clouds,dailyrainin,SoftwareType,DateUTC
2013-07-08 00:00:00,76.4,65.5,29.95,South,180,3.0,6.0,69,0.00,,,0.00,VWS V14.00,2013-07-08 05:00:00,
2013-07-08 00:05:00,76.3,65.4,29.95,South,180,4.0,7.0,69,0.00,,,0.00,VWS V14.00,2013-07-08 05:05:00,
2013-07-08 00:10:00,76.2,65.3,29.95,South,180,4.0,7.0,69,0.00,,,0.00,VWS V14.00,2013-07-08 05:10:00,
2013-07-08 00:35:00,75.7,65.6,29.96,South,180,4.0,7.0,71,0.00,,,0.00,VWS V14.00,2013-07-08 05:35:00,
2013-07-08 00:40:00,75.5,65.8,29.95,South,180,5.0,7.0,72,0.00,,,0.00,VWS V14.00,2013-07-08 05:40:00,
2013-07-08 01:00:00,75.1,65.5,29.95,South,180,4.0,8.0,72,0.00,,,0.00,VWS V14.00,2013-07-08 06:00:00,
2013-07-08 01:10:00,74.9,65.7,29.95,South,180,4.0,7.0,73,0.00,,,0.00,VWS V14.00,2013-07-08 06:10:00,
2013-07-08 01:15:00,74.7,65.5,29.95,South,180,4.0,9.0,73,0.00,,,0.00,VWS V14.00,2013-07-08 06:15:00,
2013-07-08 01:25:00,74.5,65.7,29.95,South,180,5.0,9.0,74,0.00,,,0.00,VWS V14.00,2013-07-08 06:25:00,
2013-07-08 01:35:00,74.4,65.6,29.95,South,180,4.0,6.0,74,0.00,,,0.00,VWS V14.00,2013-07-08 06:35:00,
2013-07-08 01:40:00,74.3,65.5,29.95,South,180,3.0,6.0,74,0.00,,,0.00,VWS V14.00,2013-07-08 06:40:00,
2013-07-08 01:45:00,74.2,65.4,29.95,South,180,4.0,8.0,74,0.00,,,0.00,VWS V14.00,2013-07-08 06:45:00,
2013-07-08 01:50:00,74.1,65.3,29.95,South,180,4.0,7.0,74,0.00,,,0.00,VWS V14.00,2013-07-08 06:50:00,
2013-07-08 01:55:00,74.1,65.3,29.95,South,180,5.0,8.0,74,0.00,,,0.00,VWS V14.00,2013-07-08 06:55:00,
2013-07-08 02:05:00,74.2,65.4,29.95,South,180,5.0,8.0,74,0.00,,,0.00,VWS V14.00,2013-07-08 07:05:00,
2013-07-08 02:10:00,74.2,65.4,29.95,South,180,5.0,7.0,74,0.00,,,0.00,VWS V14.00,2013-07-08 07:10:00,
2013-07-08 02:15:00,74.4,65.6,29.95,South,180,5.0,10.0,74,0.00,,,0.00,VWS V14.00,2013-07-08 07:15:00,
2013-07-08 02:25:00,74.3,65.5,29.95,South,180,5.0,9.0,74,0.00,,,0.00,VWS V14.00,2013-07-08 07:25:00,
2013-07-08 02:30:00,74.3,65.1,29.95,South,180,4.0,8.0,73,0.00,,,0.00,VWS V14.00,2013-07-08 07:30:00,
2013-07-08 02:35:00,74.2,65.4,29.95,South,180,4.0,9.0,74,0.00,,,0.00,VWS V14.00,2013-07-08 07:35:00,
2013-07-08 02:40:00,74.2,65.0,29.95,South,180,5.0,9.0,73,0.00,,,0.00,VWS V14.00,2013-07-08 07:40:00,
2013-07-08 02:45:00,74.2,65.0,29.95,South,180,5.0,9.0,73,0.00,,,0.00,VWS V14.00,2013-07-08 07:45:00,
2013-07-08 02:50:00,74.1,64.9,29.95,South,180,5.0,8.0,73,0.00,,,0.00,VWS V14.00,2013-07-08 07:50:00,
2013-07-08 02:55:00,74.0,64.8,29.95,South,180,5.0,8.0,73,0.00,,,0.00,VWS V14.00,2013-07-08 07:55:00,
2013-07-08 03:05:00,74.0,64.8,29.95,South,180,5.0,8.0,73,0.00,,,0.00,VWS V14.00,2013-07-08 08:05:00,
2013-07-08 03:10:00,73.9,65.1,29.95,South,180,4.0,7.0,74,0.00,,,0.00,VWS V14.00,2013-07-08 08:10:00,
2013-07-08 03:15:00,73.9,65.1,29.95,South,180,4.0,8.0,74,0.00,,,0.00,VWS V14.00,2013-07-08 08:15:00,
2013-07-08 03:20:00,73.8,65.0,29.96,South,180,4.0,8.0,74,0.00,,,0.00,VWS V14.00,2013-07-08 08:20:00,
2013-07-08 03:25:00,73.7,64.9,29.96,South,180,4.0,7.0,74,0.00,,,0.00,VWS V14.00,2013-07-08 08:25:00,
2013-07-08 03:55:00,73.7,65.3,29.96,South,180,5.0,9.0,75,0.00,,,0.00,VWS V14.00,2013-07-08 08:55:00,
2013-07-08 04:00:00,73.7,64.9,29.96,South,180,6.0,10.0,74,0.00,,,0.00,VWS V14.00,2013-07-08 09:00:00,
2013-07-08 04:10:00,73.9,65.1,29.96,South,180,6.0,11.0,74,0.00,,,0.00,VWS V14.00,2013-07-08 09:10:00,
2013-07-08 04:15:00,74.0,65.2,29.96,South,180,6.0,10.0,74,0.00,,,0.00,VWS V14.00,2013-07-08 09:15:00,
2013-07-08 04:25:00,73.9,65.1,29.96,South,180,4.0,8.0,74,0.00,,,0.00,VWS V14.00,2013-07-08 09:25:00,
2013-07-08 04:30:00,73.9,65.1,29.96,South,180,5.0,9.0,74,0.00,,,0.00,VWS V14.00,2013-07-08 09:30:00,
2013-07-08 04:40:00,73.9,65.1,29.96,South,180,4.0,9.0,74,0.00,,,0.00,VWS V14.00,2013-07-08 09:40:00,
2013-07-08 04:50:00,73.8,65.0,29.97,SSW,202,4.0,6.0,74,0.00,,,0.00,VWS V14.00,2013-07-08 09:50:00,
2013-07-08 04:55:00,73.7,65.3,29.97,SSW,202,3.0,7.0,75,0.00,,,0.00,VWS V14.00,2013-07-08 09:55:00,
2013-07-08 05:00:00,73.7,65.3,29.97,SSW,202,4.0,8.0,75,0.00,,,0.00,VWS V14.00,2013-07-08 10:00:00,
2013-07-08 05:15:00,73.4,65.0,29.97,SSW,202,3.0,7.0,75,0.00,,,0.00,VWS V14.00,2013-07-08 10:15:00,
2013-07-08 05:20:00,73.2,64.8,29.97,SSW,202,4.0,8.0,75,0.00,,,0.00,VWS V14.00,2013-07-08 10:20:00,
2013-07-08 05:35:00,72.9,64.9,29.97,SSW,202,4.0,8.0,76,0.00,,,0.00,VWS V14.00,2013-07-08 10:35:00,
2013-07-08 05:40:00,72.8,64.8,29.97,SSW,202,3.0,7.0,76,0.00,,,0.00,VWS V14.00,2013-07-08 10:40:00,
2013-07-08 05:55:00,72.7,65.1,29.97,South,180,4.0,7.0,77,0.00,,,0.00,VWS V14.00,2013-07-08 10:55:00,
2013-07-08 06:00:00,72.6,65.0,29.97,South,180,5.0,9.0,77,0.00,,,0.00,VWS V14.00,2013-07-08 11:00:00,
2013-07-08 06:05:00,72.6,65.0,29.97,South,180,6.0,11.0,77,0.00,,,0.00,VWS V14.00,2013-07-08 11:05:00,
2013-07-08 06:10:00,72.6,65.0,29.97,South,180,3.0,7.0,77,0.00,,,0.00,VWS V14.00,2013-07-08 11:10:00,
2013-07-08 06:25:00,72.7,65.1,29.97,South,180,3.0,7.0,77,0.00,,,0.00,VWS V14.00,2013-07-08 11:25:00,
2013-07-08 06:30:00,72.8,65.2,29.97,South,180,3.0,8.0,77,0.00,,,0.00,VWS V14.00,2013-07-08 11:30:00,
2013-07-08 06:35:00,72.8,65.6,29.97,South,180,3.0,6.0,78,0.00,,,0.00,VWS V14.00,2013-07-08 11:35:00,
2013-07-08 06:40:00,72.8,65.6,29.97,SSW,202,2.0,7.0,78,0.00,,,0.00,VWS V14.00,2013-07-08 11:40:00,
2013-07-08 06:55:00,73.0,65.7,29.97,SSW,202,3.0,6.0,78,0.00,,,0.00,VWS V14.00,2013-07-08 11:55:00,
2013-07-08 07:00:00,73.1,65.8,29.98,SSW,202,3.0,8.0,78,0.00,,,0.00,VWS V14.00,2013-07-08 12:00:00,
2013-07-08 07:05:00,73.3,66.0,29.98,South,180,3.0,7.0,78,0.00,,,0.00,VWS V14.00,2013-07-08 12:05:00,
2013-07-08 07:10:00,73.5,66.2,29.98,South,180,3.0,8.0,78,0.00,,,0.00,VWS V14.00,2013-07-08 12:10:00,
2013-07-08 07:20:00,74.0,66.3,29.98,South,180,3.0,7.0,77,0.00,,,0.00,VWS V14.00,2013-07-08 12:20:00,
2013-07-08 07:25:00,74.1,66.4,29.98,South,180,3.0,7.0,77,0.00,,,0.00,VWS V14.00,2013-07-08 12:25:00,
2013-07-08 07:35:00,74.4,67.1,29.98,South,180,4.0,8.0,78,0.00,,,0.00,VWS V14.00,2013-07-08 12:35:00,
2013-07-08 07:50:00,74.7,66.6,29.98,South,180,5.0,10.0,76,0.00,,,0.00,VWS V14.00,2013-07-08 12:50:00,
2013-07-08 07:55:00,74.8,66.7,29.98,South,180,6.0,9.0,76,0.00,,,0.00,VWS V14.00,2013-07-08 12:55:00,
2013-07-08 08:00:00,74.9,67.2,29.98,South,180,5.0,10.0,77,0.00,,,0.00,VWS V14.00,2013-07-08 13:00:00,
2013-07-08 08:05:00,74.9,67.2,29.98,SSW,202,5.0,9.0,77,0.00,,,0.00,VWS V14.00,2013-07-08 13:05:00,
2013-07-08 08:20:00,75.2,67.5,29.98,South,180,5.0,11.0,77,0.00,,,0.00,VWS V14.00,2013-07-08 13:20:00,
2013-07-08 08:45:00,75.7,68.0,29.99,SSW,202,4.0,9.0,77,0.00,,,0.00,VWS V14.00,2013-07-08 13:45:00,
2013-07-08 08:50:00,75.8,67.7,29.99,SSW,202,4.0,7.0,76,0.00,,,0.00,VWS V14.00,2013-07-08 13:50:00,
2013-07-08 08:55:00,75.9,67.8,29.99,SSW,202,4.0,9.0,76,0.00,,,0.00,VWS V14.00,2013-07-08 13:55:00,
2013-07-08 09:00:00,76.0,67.9,29.99,SSW,202,4.0,9.0,76,0.00,,,0.00,VWS V14.00,2013-07-08 14:00:00,
2013-07-08 09:05:00,76.2,68.1,29.99,SSW,202,4.0,10.0,76,0.00,,,0.00,VWS V14.00,2013-07-08 14:05:00,
2013-07-08 09:15:00,76.6,68.1,29.99,SSW,202,5.0,10.0,75,0.00,,,0.00,VWS V14.00,2013-07-08 14:15:00,
2013-07-08 09:20:00,76.8,67.9,29.99,SSW,202,4.0,10.0,74,0.00,,,0.00,VWS V14.00,2013-07-08 14:20:00,
2013-07-08 09:35:00,77.4,68.9,29.99,SSW,202,5.0,12.0,75,0.00,,,0.00,VWS V14.00,2013-07-08 14:35:00,
2013-07-08 09:40:00,77.6,69.4,29.99,SSW,202,4.0,10.0,76,0.00,,,0.00,VWS V14.00,2013-07-08 14:40:00,
2013-07-08 09:45:00,77.8,69.2,29.99,SSW,202,4.0,8.0,75,0.00,,,0.00,VWS V14.00,2013-07-08 14:45:00,
2013-07-08 09:50:00,78.0,69.4,30.00,SSW,202,4.0,8.0,75,0.00,,,0.00,VWS V14.00,2013-07-08 14:50:00,
2013-07-08 10:00:00,78.5,70.7,30.00,SSW,202,3.0,7.0,77,0.00,,,0.00,VWS V14.00,2013-07-08 15:00:00,
2013-07-08 10:05:00,78.9,71.1,30.00,South,180,4.0,9.0,77,0.00,,,0.00,VWS V14.00,2013-07-08 15:05:00,
2013-07-08 10:15:00,79.9,70.9,30.00,SSW,202,5.0,9.0,74,0.00,,,0.00,VWS V14.00,2013-07-08 15:15:00,
2013-07-08 10:20:00,80.6,70.8,30.00,South,180,3.0,7.0,72,0.00,,,0.00,VWS V14.00,2013-07-08 15:20:00,
2013-07-08 10:35:00,81.2,71.7,30.00,South,180,5.0,11.0,73,0.00,,,0.00,VWS V14.00,2013-07-08 15:35:00,
2013-07-08 10:40:00,81.7,71.8,30.00,SSW,202,4.0,8.0,72,0.00,,,0.00,VWS V14.00,2013-07-08 15:40:00,
2013-07-08 10:55:00,83.5,71.4,30.00,South,180,4.0,11.0,67,0.00,,,0.00,VWS V14.00,2013-07-08 15:55:00,
2013-07-08 11:10:00,85.1,71.6,30.00,South,180,4.0,10.0,64,0.00,,,0.00,VWS V14.00,2013-07-08 16:10:00,
2013-07-08 11:15:00,85.2,72.6,30.00,South,180,5.0,10.0,66,0.00,,,0.00,VWS V14.00,2013-07-08 16:15:00,
2013-07-08 11:20:00,85.8,73.1,30.00,South,180,2.0,8.0,66,0.00,,,0.00,VWS V14.00,2013-07-08 16:20:00,
2013-07-08 11:30:00,87.0,73.8,30.00,SW,225,5.0,16.0,65,0.00,,,0.00,VWS V14.00,2013-07-08 16:30:00,
2013-07-08 11:35:00,87.3,73.6,30.00,SW,225,4.0,15.0,64,0.00,,,0.00,VWS V14.00,2013-07-08 16:35:00,
2013-07-08 11:45:00,87.8,72.2,30.00,SSW,202,7.0,15.0,60,0.00,,,0.00,VWS V14.00,2013-07-08 16:45:00,
2013-07-08 11:50:00,86.9,71.8,30.00,SSW,202,5.0,11.0,61,0.00,,,0.00,VWS V14.00,2013-07-08 16:50:00,
2013-07-08 11:55:00,86.5,72.4,30.00,SW,225,3.0,10.0,63,0.00,,,0.00,VWS V14.00,2013-07-08 16:55:00,
2013-07-08 12:00:00,86.8,72.2,30.00,SSW,202,3.0,10.0,62,0.00,,,0.00,VWS V14.00,2013-07-08 17:00:00,
2013-07-08 12:05:00,87.2,72.6,30.00,SW,225,6.0,14.0,62,0.00,,,0.00,VWS V14.00,2013-07-08 17:05:00,
2013-07-08 12:10:00,86.8,71.3,30.00,SSW,202,5.0,14.0,60,0.00,,,0.00,VWS V14.00,2013-07-08 17:10:00,
2013-07-08 12:20:00,86.8,71.3,30.00,SSW,202,4.0,10.0,60,0.00,,,0.00,VWS V14.00,2013-07-08 17:20:00,
2013-07-08 12:25:00,87.1,73.9,30.00,SSW,202,3.0,10.0,65,0.00,,,0.00,VWS V14.00,2013-07-08 17:25:00,
2013-07-08 12:30:00,87.6,72.0,30.00,SSW,202,3.0,9.0,60,0.00,,,0.00,VWS V14.00,2013-07-08 17:30:00,
2013-07-08 12:45:00,88.4,75.6,29.99,SSW,202,3.0,11.0,66,0.00,,,0.00,VWS V14.00,2013-07-08 17:45:00,
2013-07-08 12:50:00,89.1,75.3,29.99,SSW,202,5.0,15.0,64,0.00,,,0.00,VWS V14.00,2013-07-08 17:50:00,
2013-07-08 13:00:00,90.6,75.8,29.99,SSW,202,3.0,8.0,62,0.00,,,0.00,VWS V14.00,2013-07-08 18:00:00,
2013-07-08 13:05:00,91.0,72.6,29.99,SW,225,4.0,11.0,55,0.00,,,0.00,VWS V14.00,2013-07-08 18:05:00,
2013-07-08 13:10:00,90.8,73.5,29.99,SSW,202,4.0,12.0,57,0.00,,,0.00,VWS V14.00,2013-07-08 18:10:00,
2013-07-08 13:15:00,90.5,72.7,29.99,SSW,202,6.0,14.0,56,0.00,,,0.00,VWS V14.00,2013-07-08 18:15:00,
2013-07-08 13:20:00,90.4,75.1,29.99,SW,225,3.0,12.0,61,0.00,,,0.00,VWS V14.00,2013-07-08 18:20:00,
2013-07-08 13:25:00,90.2,72.4,29.99,SW,225,3.0,12.0,56,0.00,,,0.00,VWS V14.00,2013-07-08 18:25:00,
2013-07-08 13:40:00,89.7,73.5,29.99,SSW,202,3.0,9.0,59,0.00,,,0.00,VWS V14.00,2013-07-08 18:40:00,
2013-07-08 13:45:00,89.2,73.0,29.98,SSW,202,4.0,10.0,59,0.00,,,0.00,VWS V14.00,2013-07-08 18:45:00,
2013-07-08 13:50:00,89.1,72.9,29.98,SSW,202,3.0,9.0,59,0.00,,,0.00,VWS V14.00,2013-07-08 18:50:00,
2013-07-08 13:55:00,89.4,74.2,29.98,SSW,202,4.0,11.0,61,0.00,,,0.00,VWS V14.00,2013-07-08 18:55:00,
2013-07-08 14:00:00,89.9,75.1,29.98,SSW,202,2.0,7.0,62,0.00,,,0.00,VWS V14.00,2013-07-08 19:00:00,
2013-07-08 14:05:00,90.1,76.3,29.98,SSW,202,2.0,7.0,64,0.00,,,0.00,VWS V14.00,2013-07-08 19:05:00,
2013-07-08 14:10:00,90.6,75.3,29.97,SW,225,2.0,10.0,61,0.00,,,0.00,VWS V14.00,2013-07-08 19:10:00,
2013-07-08 14:25:00,91.8,75.4,29.97,SSW,202,3.0,8.0,59,0.00,,,0.00,VWS V14.00,2013-07-08 19:25:00,
2013-07-08 14:30:00,91.9,74.5,29.97,SSW,202,4.0,9.0,57,0.00,,,0.00,VWS V14.00,2013-07-08 19:30:00,
2013-07-08 14:35:00,91.9,75.0,29.97,SSW,202,3.0,7.0,58,0.00,,,0.00,VWS V14.00,2013-07-08 19:35:00,
2013-07-08 14:50:00,92.2,75.3,29.97,SSW,202,4.0,10.0,58,0.00,,,0.00,VWS V14.00,2013-07-08 19:50:00,
2013-07-08 14:55:00,91.9,72.9,29.97,South,180,6.0,10.0,54,0.00,,,0.00,VWS V14.00,2013-07-08 19:55:00,
2013-07-08 15:00:00,91.5,74.1,29.97,South,180,6.0,14.0,57,0.00,,,0.00,VWS V14.00,2013-07-08 20:00:00,
2013-07-08 15:05:00,91.3,74.5,29.96,SSW,202,5.0,12.0,58,0.00,,,0.00,VWS V14.00,2013-07-08 20:05:00,
2013-07-08 15:10:00,91.2,74.4,29.96,South,180,6.0,10.0,58,0.00,,,0.00,VWS V14.00,2013-07-08 20:10:00,
2013-07-08 15:15:00,91.3,74.5,29.96,SW,225,4.0,11.0,58,0.00,,,0.00,VWS V14.00,2013-07-08 20:15:00,
2013-07-08 15:20:00,91.5,75.2,29.96,SW,225,3.0,8.0,59,0.00,,,0.00,VWS V14.00,2013-07-08 20:20:00,
2013-07-08 15:35:00,91.3,73.9,29.95,South,180,3.0,9.0,57,0.00,,,0.00,VWS V14.00,2013-07-08 20:35:00,
2013-07-08 15:40:00,91.3,73.4,29.95,South,180,3.0,9.0,56,0.00,,,0.00,VWS V14.00,2013-07-08 20:40:00,
2013-07-08 15:45:00,91.3,74.5,29.95,South,180,4.0,12.0,58,0.00,,,0.00,VWS V14.00,2013-07-08 20:45:00,
2013-07-08 15:50:00,91.1,72.7,29.95,SSW,202,3.0,11.0,55,0.00,,,0.00,VWS V14.00,2013-07-08 20:50:00,
2013-07-08 16:00:00,91.1,75.3,29.95,SSW,202,4.0,9.0,60,0.00,,,0.00,VWS V14.00,2013-07-08 21:00:00,
2013-07-08 16:10:00,90.8,73.5,29.95,South,180,5.0,10.0,57,0.00,,,0.00,VWS V14.00,2013-07-08 21:10:00,
2013-07-08 16:15:00,90.8,73.5,29.95,South,180,5.0,14.0,57,0.00,,,0.00,VWS V14.00,2013-07-08 21:15:00,
2013-07-08 16:30:00,90.6,71.1,29.95,South,180,7.0,12.0,53,0.00,,,0.00,VWS V14.00,2013-07-08 21:30:00,
2013-07-08 16:40:00,90.4,70.4,29.95,South,180,6.0,11.0,52,0.00,,,0.00,VWS V14.00,2013-07-08 21:40:00,
2013-07-08 16:50:00,90.2,71.9,29.95,SSE,158,4.0,11.0,55,0.00,,,0.00,VWS V14.00,2013-07-08 21:50:00,
2013-07-08 16:55:00,89.9,71.0,29.95,South,180,6.0,11.0,54,0.00,,,0.00,VWS V14.00,2013-07-08 21:55:00,
2013-07-08 17:00:00,89.7,70.9,29.95,South,180,5.0,9.0,54,0.00,,,0.00,VWS V14.00,2013-07-08 22:00:00,
2013-07-08 17:05:00,89.6,71.3,29.95,South,180,5.0,13.0,55,0.00,,,0.00,VWS V14.00,2013-07-08 22:05:00,
2013-07-08 17:10:00,89.6,70.2,29.95,South,180,5.0,13.0,53,0.00,,,0.00,VWS V14.00,2013-07-08 22:10:00,
2013-07-08 17:15:00,89.6,71.8,29.95,South,180,5.0,10.0,56,0.00,,,0.00,VWS V14.00,2013-07-08 22:15:00,
2013-07-08 17:20:00,89.5,72.8,29.95,South,180,3.0,7.0,58,0.00,,,0.00,VWS V14.00,2013-07-08 22:20:00,
2013-07-08 17:25:00,89.3,72.1,29.95,South,180,3.0,11.0,57,0.00,,,0.00,VWS V14.00,2013-07-08 22:25:00,
2013-07-08 17:35:00,89.3,71.6,29.95,South,180,3.0,8.0,56,0.00,,,0.00,VWS V14.00,2013-07-08 22:35:00,
2013-07-08 17:40:00,89.2,70.9,29.94,South,180,3.0,8.0,55,0.00,,,0.00,VWS V14.00,2013-07-08 22:40:00,
2013-07-08 17:45:00,89.2,73.0,29.94,South,180,5.0,8.0,59,0.00,,,0.00,VWS V14.00,2013-07-08 22:45:00,
2013-07-08 17:50:00,89.0,72.3,29.94,South,180,4.0,7.0,58,0.00,,,0.00,VWS V14.00,2013-07-08 22:50:00,
2013-07-08 17:55:00,88.7,71.5,29.94,South,180,2.0,7.0,57,0.00,,,0.00,VWS V14.00,2013-07-08 22:55:00,
2013-07-08 18:05:00,88.4,71.2,29.94,South,180,3.0,9.0,57,0.00,,,0.00,VWS V14.00,2013-07-08 23:05:00,
2013-07-08 18:10:00,88.4,71.8,29.94,South,180,3.0,7.0,58,0.00,,,0.00,VWS V14.00,2013-07-08 23:10:00,
2013-07-08 18:25:00,88.3,71.2,29.94,South,180,3.0,7.0,57,0.00,,,0.00,VWS V14.00,2013-07-08 23:25:00,
2013-07-08 18:30:00,88.1,72.0,29.94,South,180,2.0,5.0,59,0.00,,,0.00,VWS V14.00,2013-07-08 23:30:00,
2013-07-08 18:40:00,87.6,72.5,29.93,SSE,158,2.0,5.0,61,0.00,,,0.00,VWS V14.00,2013-07-08 23:40:00,
2013-07-08 18:45:00,87.4,72.3,29.93,SSE,158,1.0,6.0,61,0.00,,,0.00,VWS V14.00,2013-07-08 23:45:00,
2013-07-08 18:50:00,87.2,71.6,29.93,SSE,158,2.0,7.0,60,0.00,,,0.00,VWS V14.00,2013-07-08 23:50:00,
2013-07-08 18:55:00,87.3,71.2,29.93,SSE,158,2.0,5.0,59,0.00,,,0.00,VWS V14.00,2013-07-08 23:55:00,
2013-07-08 19:00:00,87.4,70.8,29.93,SSE,158,3.0,7.0,58,0.00,,,0.00,VWS V14.00,2013-07-09 00:00:00,
2013-07-08 19:05:00,87.5,73.4,29.93,SSE,158,1.0,6.0,63,0.00,,,0.00,VWS V14.00,2013-07-09 00:05:00,
2013-07-08 19:18:00,87.5,72.4,29.93,SSE,158,2.0,6.0,61,0.00,,,0.00,VWS V14.00,2013-07-09 00:18:00,
2013-07-08 19:20:00,87.5,71.9,29.94,SSE,160,0.0,4.0,60,0.00,,,0.00,VWS V14.00,2013-07-09 00:20:00,
2013-07-08 19:24:00,87.5,72.9,29.94,SSE,166,5.0,5.0,62,0.00,,,0.00,VWS V14.00,2013-07-09 00:24:00,
2013-07-08 19:25:00,87.5,71.4,29.94,South,170,2.0,7.0,59,0.00,,,0.00,VWS V14.00,2013-07-09 00:25:00,
2013-07-08 19:29:00,87.4,72.3,29.94,SSE,153,0.0,5.0,61,0.00,,,0.00,VWS V14.00,2013-07-09 00:29:00,
2013-07-08 19:30:00,87.3,72.2,29.94,SSE,157,0.0,5.0,61,0.00,,,0.00,VWS V14.00,2013-07-09 00:30:00,
2013-07-08 19:34:00,87.2,72.1,29.93,SSE,164,3.0,5.0,61,0.00,,,0.00,VWS V14.00,2013-07-09 00:34:00,
2013-07-08 19:39:00,87.0,72.4,29.93,SSE,151,5.0,5.0,62,0.00,,,0.00,VWS V14.00,2013-07-09 00:39:00,
2013-07-08 19:40:00,86.9,72.3,29.93,SSE,148,0.0,5.0,62,0.00,,,0.00,VWS V14.00,2013-07-09 00:40:00,
2013-07-08 19:44:00,86.8,72.2,29.93,SE,133,1.0,5.0,62,0.00,,,0.00,VWS V14.00,2013-07-09 00:44:00,
2013-07-08 19:45:00,86.8,72.2,29.93,SSE,148,1.0,5.0,62,0.00,,,0.00,VWS V14.00,2013-07-09 00:45:00,
2013-07-08 19:49:00,86.6,72.5,29.93,SE,138,5.0,5.0,63,0.00,,,0.00,VWS V14.00,2013-07-09 00:49:00,
2013-07-08 19:54:00,86.3,72.7,29.93,SSE,165,4.0,4.0,64,0.00,,,0.00,VWS V14.00,2013-07-09 00:54:00,
2013-07-08 19:59:00,86.1,72.0,29.93,SSE,162,5.0,8.0,63,0.00,,,0.00,VWS V14.00,2013-07-09 00:59:00,
2013-07-08 20:04:00,85.9,71.8,29.93,ESE,109,3.0,7.0,63,0.00,,,0.00,VWS V14.00,2013-07-09 01:04:00,
2013-07-08 20:05:00,85.9,71.4,29.93,SSE,155,4.0,7.0,62,0.00,,,0.00,VWS V14.00,2013-07-09 01:05:00,
2013-07-08 20:09:00,85.7,71.7,29.93,South,177,2.0,6.0,63,0.00,,,0.00,VWS V14.00,2013-07-09 01:09:00,
2013-07-08 20:14:00,85.4,71.4,29.93,SSE,153,3.0,7.0,63,0.00,,,0.00,VWS V14.00,2013-07-09 01:14:00,
2013-07-08 20:19:00,85.2,71.2,29.93,SSE,162,4.0,8.0,63,0.00,,,0.00,VWS V14.00,2013-07-09 01:19:00,
2013-07-08 20:24:00,85.1,71.6,29.93,SE,134,3.0,6.0,64,0.00,,,0.00,VWS V14.00,2013-07-09 01:24:00,
2013-07-08 20:29:00,84.9,71.4,29.93,SSE,164,2.0,6.0,64,0.00,,,0.00,VWS V14.00,2013-07-09 01:29:00,
2013-07-08 20:34:00,84.7,71.6,29.93,SE,133,1.0,6.0,65,0.00,,,0.00,VWS V14.00,2013-07-09 01:34:00,
2013-07-08 20:39:00,84.5,71.9,29.93,SE,143,0.0,7.0,66,0.00,,,0.00,VWS V14.00,2013-07-09 01:39:00,
2013-07-08 20:44:00,84.1,71.5,29.93,SSE,153,1.0,5.0,66,0.00,,,0.00,VWS V14.00,2013-07-09 01:44:00,
2013-07-08 20:49:00,83.9,71.8,29.93,SSE,151,0.0,7.0,67,0.00,,,0.00,VWS V14.00,2013-07-09 01:49:00,
2013-07-08 20:54:00,83.7,72.0,29.93,SSE,162,0.0,4.0,68,0.00,,,0.00,VWS V14.00,2013-07-09 01:54:00,
2013-07-08 20:59:00,83.4,71.7,29.93,SSE,152,4.0,5.0,68,0.00,,,0.00,VWS V14.00,2013-07-09 01:59:00,
2013-07-08 21:04:00,83.1,71.4,29.93,SSE,153,2.0,5.0,68,0.00,,,0.00,VWS V14.00,2013-07-09 02:04:00,
2013-07-08 21:09:00,82.9,71.7,29.93,SSE,158,2.0,4.0,69,0.00,,,0.00,VWS V14.00,2013-07-09 02:09:00,
2013-07-08 21:14:00,82.6,71.4,29.93,SE,144,1.0,5.0,69,0.00,,,0.00,VWS V14.00,2013-07-09 02:14:00,
2013-07-08 21:19:00,82.3,71.1,29.93,SSE,159,3.0,6.0,69,0.00,,,0.00,VWS V14.00,2013-07-09 02:19:00,
2013-07-08 21:24:00,82.1,71.3,29.93,SSE,158,4.0,7.0,70,0.00,,,0.00,VWS V14.00,2013-07-09 02:24:00,
2013-07-08 21:29:00,82.1,70.9,29.94,SSE,149,4.0,9.0,69,0.00,,,0.00,VWS V14.00,2013-07-09 02:29:00,
2013-07-08 21:35:00,82.0,70.8,29.94,SE,139,4.0,7.0,69,0.00,,,0.00,VWS V14.00,2013-07-09 02:35:00,
2013-07-08 21:40:00,82.0,70.8,29.94,SSE,154,5.0,8.0,69,0.00,,,0.00,VWS V14.00,2013-07-09 02:40:00,
2013-07-08 21:45:00,81.9,70.7,29.94,SSE,156,0.0,6.0,69,0.00,,,0.00,VWS V14.00,2013-07-09 02:45:00,
2013-07-08 21:50:00,81.8,70.6,29.95,SSE,155,1.0,7.0,69,0.00,,,0.00,VWS V14.00,2013-07-09 02:50:00,
2013-07-08 21:55:00,81.6,70.9,29.95,SSE,166,3.0,7.0,70,0.00,,,0.00,VWS V14.00,2013-07-09 02:55:00,
2013-07-08 22:00:00,81.4,71.1,29.95,SE,143,0.0,6.0,71,0.00,,,0.00,VWS V14.00,2013-07-09 03:00:00,
2013-07-08 22:05:00,81.1,70.8,29.95,SSE,158,2.0,6.0,71,0.00,,,0.00,VWS V14.00,2013-07-09 03:05:00,
2013-07-08 22:10:00,80.8,70.5,29.95,SSE,158,3.0,6.0,71,0.00,,,0.00,VWS V14.00,2013-07-09 03:10:00,
2013-07-08 22:15:00,80.7,70.4,29.96,SSE,158,2.0,6.0,71,0.00,,,0.00,VWS V14.00,2013-07-09 03:15:00,
2013-07-08 22:20:00,80.5,70.7,29.96,SSE,158,2.0,5.0,72,0.00,,,0.00,VWS V14.00,2013-07-09 03:20:00,
2013-07-08 22:25:00,80.2,70.4,29.96,SSE,158,3.0,8.0,72,0.00,,,0.00,VWS V14.00,2013-07-09 03:25:00,
2013-07-08 22:30:00,80.2,70.4,29.96,SSE,158,3.0,7.0,72,0.00,,,0.00,VWS V14.00,2013-07-09 03:30:00,
2013-07-08 22:35:00,80.2,70.4,29.96,SSE,158,4.0,7.0,72,0.00,,,0.00,VWS V14.00,2013-07-09 03:35:00,
2013-07-08 22:40:00,80.3,70.5,29.96,SSE,158,4.0,7.0,72,0.00,,,0.00,VWS V14.00,2013-07-09 03:40:00,
2013-07-08 22:45:00,80.4,70.1,29.96,SSE,158,4.0,7.0,71,0.00,,,0.00,VWS V14.00,2013-07-09 03:45:00,
2013-07-08 22:50:00,80.3,70.5,29.96,SSE,158,3.0,5.0,72,0.00,,,0.00,VWS V14.00,2013-07-09 03:50:00,
2013-07-08 22:55:00,80.1,70.3,29.96,SSE,158,2.0,6.0,72,0.00,,,0.00,VWS V14.00,2013-07-09 03:55:00,
2013-07-08 23:00:00,80.0,70.2,29.96,SSE,158,2.0,6.0,72,0.00,,,0.00,VWS V14.00,2013-07-09 04:00:00,
2013-07-08 23:05:00,80.0,70.2,29.96,SSE,158,4.0,7.0,72,0.00,,,0.00,VWS V14.00,2013-07-09 04:05:00,
2013-07-08 23:10:00,79.8,70.0,29.96,SSE,158,3.0,6.0,72,0.00,,,0.00,VWS V14.00,2013-07-09 04:10:00,
2013-07-08 23:15:00,79.6,70.2,29.96,SSE,158,3.0,7.0,73,0.00,,,0.00,VWS V14.00,2013-07-09 04:15:00,
2013-07-08 23:20:00,79.4,70.0,29.96,SSE,158,4.0,6.0,73,0.00,,,0.00,VWS V14.00,2013-07-09 04:20:00,
2013-07-08 23:25:00,79.2,70.2,29.96,SSE,158,3.0,7.0,74,0.00,,,0.00,VWS V14.00,2013-07-09 04:25:00,
2013-07-08 23:30:00,79.1,70.1,29.96,SSE,158,2.0,7.0,74,0.00,,,0.00,VWS V14.00,2013-07-09 04:30:00,
2013-07-08 23:35:00,78.9,69.9,29.96,SSE,158,2.0,6.0,74,0.00,,,0.00,VWS V14.00,2013-07-09 04:35:00,
2013-07-08 23:40:00,78.7,70.1,29.96,SSE,158,2.0,6.0,75,0.00,,,0.00,VWS V14.00,2013-07-09 04:40:00,
2013-07-08 23:45:00,78.6,70.0,29.96,SSE,158,3.0,7.0,75,0.00,,,0.00,VWS V14.00,2013-07-09 04:45:00,
2013-07-08 23:50:00,78.5,69.9,29.96,SSE,158,3.0,6.0,75,0.00,,,0.00,VWS V14.00,2013-07-09 04:50:00,
2013-07-08 23:55:00,78.3,70.1,29.96,SSE,158,3.0,8.0,76,0.00,,,0.00,VWS V14.00,2013-07-09 04:55:00,